sensor_id;sensor_type;location;lat;lon;timestamp;temperature;humidity
39665;DHT22;26679;50.872;4.332;2023-07-20T00:02:05;18.50;99.90
39665;DHT22;26679;50.872;4.332;2023-07-20T00:04:33;18.60;99.90
39665;DHT22;26679;50.872;4.332;2023-07-20T00:06:58;18.60;99.90
39665;DHT22;26679;50.872;4.332;2023-07-20T00:09:26;18.60;99.90
39665;DHT22;26679;50.872;4.332;2023-07-20T00:11:52;18.60;99.90
39665;DHT22;26679;50.872;4.332;2023-07-20T00:14:17;18.60;99.90
39665;DHT22;26679;50.872;4.332;2023-07-20T00:16:44;18.50;99.90
39665;DHT22;26679;50.872;4.332;2023-07-20T00:19:14;18.40;99.90
39665;DHT22;26679;50.872;4.332;2023-07-20T00:21:40;18.40;99.90
39665;DHT22;26679;50.872;4.332;2023-07-20T00:24:08;18.50;99.90
39665;DHT22;26679;50.872;4.332;2023-07-20T00:26:34;18.40;99.90
39665;DHT22;26679;50.872;4.332;2023-07-20T00:28:59;18.40;99.90
39665;DHT22;26679;50.872;4.332;2023-07-20T00:31:25;18.40;99.90
39665;DHT22;26679;50.872;4.332;2023-07-20T00:33:52;18.30;99.90
39665;DHT22;26679;50.872;4.332;2023-07-20T00:36:17;18.20;99.90
39665;DHT22;26679;50.872;4.332;2023-07-20T00:38:43;18.30;99.90
39665;DHT22;26679;50.872;4.332;2023-07-20T00:41:11;18.30;99.90
39665;DHT22;26679;50.872;4.332;2023-07-20T00:43:36;18.30;99.90
39665;DHT22;26679;50.872;4.332;2023-07-20T00:46:02;18.30;99.90
39665;DHT22;26679;50.872;4.332;2023-07-20T00:48:28;18.30;99.90
39665;DHT22;26679;50.872;4.332;2023-07-20T00:50:54;18.30;99.90
39665;DHT22;26679;50.872;4.332;2023-07-20T00:53:20;18.20;99.90
39665;DHT22;26679;50.872;4.332;2023-07-20T00:55:46;18.30;99.90
39665;DHT22;26679;50.872;4.332;2023-07-20T00:58:12;18.30;99.90
39665;DHT22;26679;50.872;4.332;2023-07-20T01:00:37;18.30;99.90
39665;DHT22;26679;50.872;4.332;2023-07-20T01:03:03;18.30;99.90
39665;DHT22;26679;50.872;4.332;2023-07-20T01:05:35;18.40;99.90
39665;DHT22;26679;50.872;4.332;2023-07-20T01:08:07;18.40;99.90
39665;DHT22;26679;50.872;4.332;2023-07-20T01:10:44;18.30;99.90
39665;DHT22;26679;50.872;4.332;2023-07-20T01:13:11;18.30;99.90
39665;DHT22;26679;50.872;4.332;2023-07-20T01:15:38;18.30;99.90
39665;DHT22;26679;50.872;4.332;2023-07-20T01:18:04;18.30;99.90
39665;DHT22;26679;50.872;4.332;2023-07-20T01:20:30;18.20;99.90
39665;DHT22;26679;50.872;4.332;2023-07-20T01:27:58;18.20;99.90
39665;DHT22;26679;50.872;4.332;2023-07-20T01:33:11;18.20;99.90
39665;DHT22;26679;50.872;4.332;2023-07-20T01:35:38;18.20;99.90
39665;DHT22;26679;50.872;4.332;2023-07-20T01:38:06;18.20;99.90
39665;DHT22;26679;50.872;4.332;2023-07-20T01:40:32;18.20;99.90
39665;DHT22;26679;50.872;4.332;2023-07-20T01:42:58;18.20;99.90
39665;DHT22;26679;50.872;4.332;2023-07-20T01:45:24;18.20;99.90
39665;DHT22;26679;50.872;4.332;2023-07-20T01:47:49;18.20;99.90
39665;DHT22;26679;50.872;4.332;2023-07-20T01:50:15;18.10;99.90
39665;DHT22;26679;50.872;4.332;2023-07-20T01:52:40;18.10;99.90
39665;DHT22;26679;50.872;4.332;2023-07-20T01:55:06;18.10;99.90
39665;DHT22;26679;50.872;4.332;2023-07-20T01:57:31;18.10;99.90
39665;DHT22;26679;50.872;4.332;2023-07-20T01:59:57;18.10;99.90
39665;DHT22;26679;50.872;4.332;2023-07-20T02:02:23;18.20;99.90
39665;DHT22;26679;50.872;4.332;2023-07-20T02:04:49;18.20;99.90
39665;DHT22;26679;50.872;4.332;2023-07-20T02:07:14;18.20;99.90
39665;DHT22;26679;50.872;4.332;2023-07-20T02:09:40;18.20;99.90
39665;DHT22;26679;50.872;4.332;2023-07-20T02:12:05;18.10;99.90
39665;DHT22;26679;50.872;4.332;2023-07-20T02:14:31;18.00;99.90
39665;DHT22;26679;50.872;4.332;2023-07-20T02:16:57;18.00;99.90
39665;DHT22;26679;50.872;4.332;2023-07-20T02:19:25;18.00;99.90
39665;DHT22;26679;50.872;4.332;2023-07-20T02:21:51;17.90;99.90
39665;DHT22;26679;50.872;4.332;2023-07-20T02:24:17;17.90;99.90
39665;DHT22;26679;50.872;4.332;2023-07-20T02:26:42;17.90;99.90
39665;DHT22;26679;50.872;4.332;2023-07-20T02:29:09;17.90;99.90
39665;DHT22;26679;50.872;4.332;2023-07-20T02:31:37;17.90;99.90
39665;DHT22;26679;50.872;4.332;2023-07-20T02:34:02;17.90;99.90
39665;DHT22;26679;50.872;4.332;2023-07-20T02:36:28;18.80;99.90
39665;DHT22;26679;50.872;4.332;2023-07-20T02:38:53;17.80;99.90
39665;DHT22;26679;50.872;4.332;2023-07-20T02:41:19;17.80;99.90
39665;DHT22;26679;50.872;4.332;2023-07-20T02:43:45;17.80;99.90
39665;DHT22;26679;50.872;4.332;2023-07-20T02:46:11;17.80;99.90
39665;DHT22;26679;50.872;4.332;2023-07-20T02:48:36;17.80;99.90
39665;DHT22;26679;50.872;4.332;2023-07-20T02:51:02;17.80;99.90
39665;DHT22;26679;50.872;4.332;2023-07-20T02:53:27;17.80;99.90
39665;DHT22;26679;50.872;4.332;2023-07-20T02:55:53;17.80;99.90
39665;DHT22;26679;50.872;4.332;2023-07-20T02:58:18;17.80;99.90
39665;DHT22;26679;50.872;4.332;2023-07-20T03:00:44;17.90;99.90
39665;DHT22;26679;50.872;4.332;2023-07-20T03:03:10;18.00;99.90
39665;DHT22;26679;50.872;4.332;2023-07-20T03:05:36;18.00;99.90
39665;DHT22;26679;50.872;4.332;2023-07-20T03:08:03;18.10;99.90
39665;DHT22;26679;50.872;4.332;2023-07-20T03:10:29;18.00;99.90
39665;DHT22;26679;50.872;4.332;2023-07-20T03:12:54;18.00;99.90
39665;DHT22;26679;50.872;4.332;2023-07-20T03:15:20;18.10;99.90
39665;DHT22;26679;50.872;4.332;2023-07-20T03:17:45;18.00;99.90
39665;DHT22;26679;50.872;4.332;2023-07-20T03:20:11;18.00;99.90
39665;DHT22;26679;50.872;4.332;2023-07-20T03:22:38;18.00;99.90
39665;DHT22;26679;50.872;4.332;2023-07-20T03:25:03;18.00;99.90
39665;DHT22;26679;50.872;4.332;2023-07-20T03:27:29;17.90;99.90
39665;DHT22;26679;50.872;4.332;2023-07-20T03:29:55;17.90;99.90
39665;DHT22;26679;50.872;4.332;2023-07-20T03:32:20;18.00;99.90
39665;DHT22;26679;50.872;4.332;2023-07-20T03:34:46;18.00;99.90
39665;DHT22;26679;50.872;4.332;2023-07-20T03:37:12;18.00;99.90
39665;DHT22;26679;50.872;4.332;2023-07-20T03:39:38;18.00;99.90
39665;DHT22;26679;50.872;4.332;2023-07-20T03:42:03;18.00;99.90
39665;DHT22;26679;50.872;4.332;2023-07-20T03:44:29;17.90;99.90
39665;DHT22;26679;50.872;4.332;2023-07-20T03:46:55;17.90;99.90
39665;DHT22;26679;50.872;4.332;2023-07-20T03:49:21;18.00;99.90
39665;DHT22;26679;50.872;4.332;2023-07-20T03:51:47;17.90;99.90
39665;DHT22;26679;50.872;4.332;2023-07-20T03:54:12;17.90;99.90
39665;DHT22;26679;50.872;4.332;2023-07-20T03:56:37;17.90;99.90
39665;DHT22;26679;50.872;4.332;2023-07-20T03:59:03;17.90;99.90
39665;DHT22;26679;50.872;4.332;2023-07-20T04:01:29;17.90;99.90
39665;DHT22;26679;50.872;4.332;2023-07-20T04:03:54;18.00;99.90
39665;DHT22;26679;50.872;4.332;2023-07-20T04:06:20;18.00;99.90
39665;DHT22;26679;50.872;4.332;2023-07-20T04:08:46;18.00;99.90
39665;DHT22;26679;50.872;4.332;2023-07-20T04:11:12;18.10;99.90
39665;DHT22;26679;50.872;4.332;2023-07-20T04:13:38;18.10;99.90
39665;DHT22;26679;50.872;4.332;2023-07-20T04:16:03;18.10;99.90
39665;DHT22;26679;50.872;4.332;2023-07-20T04:18:29;18.10;99.90
39665;DHT22;26679;50.872;4.332;2023-07-20T04:20:54;18.00;99.90
39665;DHT22;26679;50.872;4.332;2023-07-20T04:23:20;18.00;99.90
39665;DHT22;26679;50.872;4.332;2023-07-20T04:25:45;18.00;99.90
39665;DHT22;26679;50.872;4.332;2023-07-20T04:28:11;18.10;99.90
39665;DHT22;26679;50.872;4.332;2023-07-20T04:30:37;18.10;99.90
39665;DHT22;26679;50.872;4.332;2023-07-20T04:33:03;18.10;99.90
39665;DHT22;26679;50.872;4.332;2023-07-20T04:35:48;18.10;99.90
39665;DHT22;26679;50.872;4.332;2023-07-20T04:38:14;18.10;99.90
39665;DHT22;26679;50.872;4.332;2023-07-20T04:40:43;18.00;99.90
39665;DHT22;26679;50.872;4.332;2023-07-20T04:43:09;18.10;99.90
39665;DHT22;26679;50.872;4.332;2023-07-20T04:45:34;18.20;99.90
39665;DHT22;26679;50.872;4.332;2023-07-20T04:48:00;18.20;99.90
39665;DHT22;26679;50.872;4.332;2023-07-20T04:50:26;18.10;99.90
39665;DHT22;26679;50.872;4.332;2023-07-20T04:52:51;18.10;99.90
39665;DHT22;26679;50.872;4.332;2023-07-20T04:55:17;18.10;99.90
39665;DHT22;26679;50.872;4.332;2023-07-20T04:57:42;18.10;99.90
39665;DHT22;26679;50.872;4.332;2023-07-20T05:00:08;18.00;99.90
39665;DHT22;26679;50.872;4.332;2023-07-20T05:02:36;18.00;99.90
39665;DHT22;26679;50.872;4.332;2023-07-20T05:05:03;18.00;99.90
39665;DHT22;26679;50.872;4.332;2023-07-20T05:07:31;18.00;99.90
39665;DHT22;26679;50.872;4.332;2023-07-20T05:09:56;18.10;99.90
39665;DHT22;26679;50.872;4.332;2023-07-20T05:12:22;18.10;99.90
39665;DHT22;26679;50.872;4.332;2023-07-20T05:14:47;18.10;99.90
39665;DHT22;26679;50.872;4.332;2023-07-20T05:17:13;18.10;99.90
39665;DHT22;26679;50.872;4.332;2023-07-20T05:19:38;18.10;99.90
39665;DHT22;26679;50.872;4.332;2023-07-20T05:22:04;18.10;99.90
39665;DHT22;26679;50.872;4.332;2023-07-20T05:24:30;18.20;99.90
39665;DHT22;26679;50.872;4.332;2023-07-20T05:26:57;18.30;99.90
39665;DHT22;26679;50.872;4.332;2023-07-20T05:29:22;18.40;99.90
39665;DHT22;26679;50.872;4.332;2023-07-20T05:31:48;18.40;99.90
39665;DHT22;26679;50.872;4.332;2023-07-20T05:34:13;18.50;99.90
39665;DHT22;26679;50.872;4.332;2023-07-20T05:36:39;18.60;99.90
39665;DHT22;26679;50.872;4.332;2023-07-20T05:39:04;18.60;99.90
39665;DHT22;26679;50.872;4.332;2023-07-20T05:41:30;18.50;99.90
39665;DHT22;26679;50.872;4.332;2023-07-20T05:43:55;18.50;99.90
39665;DHT22;26679;50.872;4.332;2023-07-20T05:46:21;18.50;99.90
39665;DHT22;26679;50.872;4.332;2023-07-20T05:48:46;18.60;99.90
39665;DHT22;26679;50.872;4.332;2023-07-20T05:51:12;18.70;99.90
39665;DHT22;26679;50.872;4.332;2023-07-20T05:53:40;18.70;99.90
39665;DHT22;26679;50.872;4.332;2023-07-20T05:56:06;18.80;99.90
39665;DHT22;26679;50.872;4.332;2023-07-20T05:58:35;18.90;99.90
39665;DHT22;26679;50.872;4.332;2023-07-20T06:01:01;18.90;99.90
39665;DHT22;26679;50.872;4.332;2023-07-20T06:03:27;18.90;99.90
39665;DHT22;26679;50.872;4.332;2023-07-20T06:05:57;19.00;99.90
39665;DHT22;26679;50.872;4.332;2023-07-20T06:08:23;19.00;99.90
39665;DHT22;26679;50.872;4.332;2023-07-20T06:10:52;19.10;99.90
39665;DHT22;26679;50.872;4.332;2023-07-20T06:13:17;19.10;99.90
39665;DHT22;26679;50.872;4.332;2023-07-20T06:15:43;19.10;99.90
39665;DHT22;26679;50.872;4.332;2023-07-20T06:18:08;19.20;99.90
39665;DHT22;26679;50.872;4.332;2023-07-20T06:20:34;19.20;99.90
39665;DHT22;26679;50.872;4.332;2023-07-20T06:23:00;19.30;99.90
39665;DHT22;26679;50.872;4.332;2023-07-20T06:25:25;19.40;99.90
39665;DHT22;26679;50.872;4.332;2023-07-20T06:27:51;19.30;99.90
39665;DHT22;26679;50.872;4.332;2023-07-20T06:30:17;19.40;99.90
39665;DHT22;26679;50.872;4.332;2023-07-20T06:32:42;19.50;99.90
39665;DHT22;26679;50.872;4.332;2023-07-20T06:35:08;19.50;99.90
39665;DHT22;26679;50.872;4.332;2023-07-20T06:37:34;19.50;99.90
39665;DHT22;26679;50.872;4.332;2023-07-20T06:39:59;19.50;99.90
39665;DHT22;26679;50.872;4.332;2023-07-20T06:42:25;19.50;99.90
39665;DHT22;26679;50.872;4.332;2023-07-20T06:44:50;19.40;99.90
39665;DHT22;26679;50.872;4.332;2023-07-20T06:47:16;19.40;99.90
39665;DHT22;26679;50.872;4.332;2023-07-20T06:49:41;19.50;99.90
39665;DHT22;26679;50.872;4.332;2023-07-20T06:52:07;19.60;99.90
39665;DHT22;26679;50.872;4.332;2023-07-20T06:54:32;19.70;99.90
39665;DHT22;26679;50.872;4.332;2023-07-20T06:56:58;19.80;99.90
39665;DHT22;26679;50.872;4.332;2023-07-20T06:59:23;19.80;99.90
39665;DHT22;26679;50.872;4.332;2023-07-20T07:01:49;19.80;99.90
39665;DHT22;26679;50.872;4.332;2023-07-20T07:04:15;19.90;99.90
39665;DHT22;26679;50.872;4.332;2023-07-20T07:06:40;19.90;99.90
39665;DHT22;26679;50.872;4.332;2023-07-20T07:09:06;19.90;99.90
39665;DHT22;26679;50.872;4.332;2023-07-20T07:11:33;19.70;99.90
39665;DHT22;26679;50.872;4.332;2023-07-20T07:13:59;19.80;99.90
39665;DHT22;26679;50.872;4.332;2023-07-20T07:16:24;19.90;99.90
39665;DHT22;26679;50.872;4.332;2023-07-20T07:18:50;20.00;99.90
39665;DHT22;26679;50.872;4.332;2023-07-20T07:21:16;19.90;99.90
39665;DHT22;26679;50.872;4.332;2023-07-20T07:23:42;19.90;99.90
39665;DHT22;26679;50.872;4.332;2023-07-20T07:26:08;19.80;99.90
39665;DHT22;26679;50.872;4.332;2023-07-20T07:28:34;19.80;99.90
39665;DHT22;26679;50.872;4.332;2023-07-20T07:30:59;19.90;99.90
39665;DHT22;26679;50.872;4.332;2023-07-20T07:33:25;20.00;99.90
39665;DHT22;26679;50.872;4.332;2023-07-20T07:35:51;19.90;99.90
39665;DHT22;26679;50.872;4.332;2023-07-20T07:38:20;19.60;99.90
39665;DHT22;26679;50.872;4.332;2023-07-20T07:40:45;19.60;99.90
39665;DHT22;26679;50.872;4.332;2023-07-20T07:43:11;19.80;99.90
39665;DHT22;26679;50.872;4.332;2023-07-20T07:45:39;20.00;99.90
39665;DHT22;26679;50.872;4.332;2023-07-20T07:48:04;20.10;99.90
39665;DHT22;26679;50.872;4.332;2023-07-20T07:50:30;20.20;99.90
39665;DHT22;26679;50.872;4.332;2023-07-20T07:52:56;20.10;99.90
39665;DHT22;26679;50.872;4.332;2023-07-20T07:55:21;19.80;99.90
39665;DHT22;26679;50.872;4.332;2023-07-20T07:57:47;19.90;99.90
39665;DHT22;26679;50.872;4.332;2023-07-20T08:00:13;20.10;99.90
39665;DHT22;26679;50.872;4.332;2023-07-20T08:02:42;20.40;99.90
39665;DHT22;26679;50.872;4.332;2023-07-20T08:05:08;20.70;99.90
39665;DHT22;26679;50.872;4.332;2023-07-20T08:07:34;21.00;99.90
39665;DHT22;26679;50.872;4.332;2023-07-20T08:09:59;21.10;99.90
39665;DHT22;26679;50.872;4.332;2023-07-20T08:12:26;21.10;99.90
39665;DHT22;26679;50.872;4.332;2023-07-20T08:14:51;21.30;99.90
39665;DHT22;26679;50.872;4.332;2023-07-20T08:17:17;21.60;99.90
39665;DHT22;26679;50.872;4.332;2023-07-20T08:19:42;21.90;99.90
39665;DHT22;26679;50.872;4.332;2023-07-20T08:22:09;22.10;99.80
39665;DHT22;26679;50.872;4.332;2023-07-20T08:24:35;22.10;99.60
39665;DHT22;26679;50.872;4.332;2023-07-20T08:27:00;22.00;99.30
39665;DHT22;26679;50.872;4.332;2023-07-20T08:29:26;21.80;99.10
39665;DHT22;26679;50.872;4.332;2023-07-20T08:31:51;21.70;99.30
39665;DHT22;26679;50.872;4.332;2023-07-20T08:34:16;21.70;99.50
39665;DHT22;26679;50.872;4.332;2023-07-20T08:36:42;21.70;99.60
39665;DHT22;26679;50.872;4.332;2023-07-20T08:39:07;21.90;99.60
39665;DHT22;26679;50.872;4.332;2023-07-20T08:41:34;21.90;99.50
39665;DHT22;26679;50.872;4.332;2023-07-20T08:43:59;22.00;99.00
39665;DHT22;26679;50.872;4.332;2023-07-20T08:46:26;22.10;98.50
39665;DHT22;26679;50.872;4.332;2023-07-20T08:48:52;22.10;98.30
39665;DHT22;26679;50.872;4.332;2023-07-20T08:51:18;22.00;97.90
39665;DHT22;26679;50.872;4.332;2023-07-20T08:53:45;22.10;97.80
39665;DHT22;26679;50.872;4.332;2023-07-20T08:56:11;22.20;97.40
39665;DHT22;26679;50.872;4.332;2023-07-20T08:58:37;22.20;97.40
39665;DHT22;26679;50.872;4.332;2023-07-20T09:01:03;22.20;98.20
39665;DHT22;26679;50.872;4.332;2023-07-20T09:03:29;22.10;98.30
39665;DHT22;26679;50.872;4.332;2023-07-20T09:05:54;22.00;98.60
39665;DHT22;26679;50.872;4.332;2023-07-20T09:08:20;22.00;98.50
39665;DHT22;26679;50.872;4.332;2023-07-20T09:10:45;22.00;97.80
39665;DHT22;26679;50.872;4.332;2023-07-20T09:13:14;21.50;98.00
39665;DHT22;26679;50.872;4.332;2023-07-20T09:15:45;21.40;98.70
39665;DHT22;26679;50.872;4.332;2023-07-20T09:18:11;21.80;98.80
39665;DHT22;26679;50.872;4.332;2023-07-20T09:20:36;22.20;98.30
39665;DHT22;26679;50.872;4.332;2023-07-20T09:23:05;22.60;96.90
39665;DHT22;26679;50.872;4.332;2023-07-20T09:25:31;22.80;96.10
39665;DHT22;26679;50.872;4.332;2023-07-20T09:27:57;22.90;95.30
39665;DHT22;26679;50.872;4.332;2023-07-20T09:30:25;23.00;95.10
39665;DHT22;26679;50.872;4.332;2023-07-20T09:32:50;23.10;95.40
39665;DHT22;26679;50.872;4.332;2023-07-20T09:35:16;23.60;95.20
39665;DHT22;26679;50.872;4.332;2023-07-20T09:37:45;24.70;94.20
39665;DHT22;26679;50.872;4.332;2023-07-20T09:40:14;25.40;92.80
39665;DHT22;26679;50.872;4.332;2023-07-20T09:42:39;25.40;92.50
39665;DHT22;26679;50.872;4.332;2023-07-20T09:45:09;25.50;91.90
39665;DHT22;26679;50.872;4.332;2023-07-20T09:47:38;25.50;91.40
39665;DHT22;26679;50.872;4.332;2023-07-20T09:50:04;25.60;91.20
39665;DHT22;26679;50.872;4.332;2023-07-20T09:52:30;25.20;91.70
39665;DHT22;26679;50.872;4.332;2023-07-20T09:54:56;24.90;91.80
39665;DHT22;26679;50.872;4.332;2023-07-20T09:57:22;24.90;92.10
39665;DHT22;26679;50.872;4.332;2023-07-20T09:59:48;25.60;91.60
39665;DHT22;26679;50.872;4.332;2023-07-20T10:02:20;26.20;90.60
39665;DHT22;26679;50.872;4.332;2023-07-20T10:04:46;26.80;90.60
39665;DHT22;26679;50.872;4.332;2023-07-20T10:07:12;27.10;88.80
39665;DHT22;26679;50.872;4.332;2023-07-20T10:09:39;26.90;88.50
39665;DHT22;26679;50.872;4.332;2023-07-20T10:12:06;26.30;88.70
39665;DHT22;26679;50.872;4.332;2023-07-20T10:14:32;26.30;89.10
39665;DHT22;26679;50.872;4.332;2023-07-20T10:17:00;26.70;89.00
39665;DHT22;26679;50.872;4.332;2023-07-20T10:19:42;27.60;88.30
39665;DHT22;26679;50.872;4.332;2023-07-20T10:22:14;28.40;86.70
39665;DHT22;26679;50.872;4.332;2023-07-20T10:24:44;28.50;85.40
39665;DHT22;26679;50.872;4.332;2023-07-20T10:27:10;27.80;86.20
39665;DHT22;26679;50.872;4.332;2023-07-20T10:29:35;27.50;86.40
39665;DHT22;26679;50.872;4.332;2023-07-20T10:32:01;27.10;86.90
39665;DHT22;26679;50.872;4.332;2023-07-20T10:34:27;26.90;87.10
39665;DHT22;26679;50.872;4.332;2023-07-20T10:36:53;26.70;87.10
39665;DHT22;26679;50.872;4.332;2023-07-20T10:39:26;26.20;87.50
39665;DHT22;26679;50.872;4.332;2023-07-20T10:42:08;26.20;88.20
39665;DHT22;26679;50.872;4.332;2023-07-20T10:44:34;26.40;88.30
39665;DHT22;26679;50.872;4.332;2023-07-20T10:47:02;26.50;87.00
39665;DHT22;26679;50.872;4.332;2023-07-20T10:49:28;26.10;87.50
39665;DHT22;26679;50.872;4.332;2023-07-20T10:51:57;26.90;86.70
39665;DHT22;26679;50.872;4.332;2023-07-20T10:56:49;28.80;84.10
39665;DHT22;26679;50.872;4.332;2023-07-20T10:59:19;29.40;81.80
39665;DHT22;26679;50.872;4.332;2023-07-20T11:01:47;29.70;82.10
39665;DHT22;26679;50.872;4.332;2023-07-20T11:04:15;29.20;81.80
39665;DHT22;26679;50.872;4.332;2023-07-20T11:06:44;28.40;82.10
39665;DHT22;26679;50.872;4.332;2023-07-20T11:09:11;27.60;83.20
39665;DHT22;26679;50.872;4.332;2023-07-20T11:11:49;27.30;84.30
39665;DHT22;26679;50.872;4.332;2023-07-20T11:14:21;27.00;84.30
39665;DHT22;26679;50.872;4.332;2023-07-20T11:16:47;26.70;84.50
39665;DHT22;26679;50.872;4.332;2023-07-20T11:19:23;26.40;84.80
39665;DHT22;26679;50.872;4.332;2023-07-20T11:21:50;26.30;84.80
39665;DHT22;26679;50.872;4.332;2023-07-20T11:24:15;26.10;85.60
39665;DHT22;26679;50.872;4.332;2023-07-20T11:29:06;26.10;86.50
39665;DHT22;26679;50.872;4.332;2023-07-20T11:31:34;26.30;86.90
39665;DHT22;26679;50.872;4.332;2023-07-20T11:34:00;27.20;85.10
39665;DHT22;26679;50.872;4.332;2023-07-20T11:36:26;27.40;83.90
39665;DHT22;26679;50.872;4.332;2023-07-20T11:38:51;26.90;84.10
39665;DHT22;26679;50.872;4.332;2023-07-20T11:41:17;26.40;85.10
39665;DHT22;26679;50.872;4.332;2023-07-20T11:43:42;26.10;84.90
39665;DHT22;26679;50.872;4.332;2023-07-20T11:46:10;26.00;85.30
39665;DHT22;26679;50.872;4.332;2023-07-20T11:48:36;26.00;85.50
39665;DHT22;26679;50.872;4.332;2023-07-20T11:51:01;26.10;85.50
39665;DHT22;26679;50.872;4.332;2023-07-20T11:53:27;26.20;85.70
39665;DHT22;26679;50.872;4.332;2023-07-20T11:55:52;26.20;86.20
39665;DHT22;26679;50.872;4.332;2023-07-20T11:58:18;26.30;86.30
39665;DHT22;26679;50.872;4.332;2023-07-20T12:00:44;26.30;85.50
39665;DHT22;26679;50.872;4.332;2023-07-20T12:03:10;26.00;85.90
39665;DHT22;26679;50.872;4.332;2023-07-20T12:05:40;25.80;86.30
39665;DHT22;26679;50.872;4.332;2023-07-20T12:08:05;25.60;86.30
39665;DHT22;26679;50.872;4.332;2023-07-20T12:10:31;25.50;86.90
39665;DHT22;26679;50.872;4.332;2023-07-20T12:13:02;25.60;86.70
39665;DHT22;26679;50.872;4.332;2023-07-20T12:15:31;25.80;86.80
39665;DHT22;26679;50.872;4.332;2023-07-20T12:18:00;25.80;86.20
39665;DHT22;26679;50.872;4.332;2023-07-20T12:20:27;25.60;86.70
39665;DHT22;26679;50.872;4.332;2023-07-20T12:22:52;25.70;87.20
39665;DHT22;26679;50.872;4.332;2023-07-20T12:25:19;26.00;86.70
39665;DHT22;26679;50.872;4.332;2023-07-20T12:27:45;26.30;85.80
39665;DHT22;26679;50.872;4.332;2023-07-20T12:30:13;26.50;85.90
39665;DHT22;26679;50.872;4.332;2023-07-20T12:32:39;27.30;85.60
39665;DHT22;26679;50.872;4.332;2023-07-20T12:35:05;28.20;83.70
39665;DHT22;26679;50.872;4.332;2023-07-20T12:37:31;28.70;82.30
39665;DHT22;26679;50.872;4.332;2023-07-20T12:39:57;28.20;82.40
39665;DHT22;26679;50.872;4.332;2023-07-20T12:42:22;27.90;82.70
39665;DHT22;26679;50.872;4.332;2023-07-20T12:44:48;27.40;83.20
39665;DHT22;26679;50.872;4.332;2023-07-20T12:47:14;27.30;83.60
39665;DHT22;26679;50.872;4.332;2023-07-20T12:49:40;27.20;83.80
39665;DHT22;26679;50.872;4.332;2023-07-20T12:52:05;27.40;84.40
39665;DHT22;26679;50.872;4.332;2023-07-20T12:54:31;26.80;84.00
39665;DHT22;26679;50.872;4.332;2023-07-20T12:56:56;26.50;84.20
39665;DHT22;26679;50.872;4.332;2023-07-20T12:59:22;26.20;84.50
39665;DHT22;26679;50.872;4.332;2023-07-20T13:01:47;26.00;85.20
39665;DHT22;26679;50.872;4.332;2023-07-20T13:04:13;25.80;85.50
39665;DHT22;26679;50.872;4.332;2023-07-20T13:06:39;25.70;85.80
39665;DHT22;26679;50.872;4.332;2023-07-20T13:09:04;25.50;85.90
39665;DHT22;26679;50.872;4.332;2023-07-20T13:11:30;25.30;86.20
39665;DHT22;26679;50.872;4.332;2023-07-20T13:13:55;25.10;87.10
39665;DHT22;26679;50.872;4.332;2023-07-20T13:16:21;25.00;87.30
39665;DHT22;26679;50.872;4.332;2023-07-20T13:18:46;24.90;87.40
39665;DHT22;26679;50.872;4.332;2023-07-20T13:21:12;24.90;88.00
39665;DHT22;26679;50.872;4.332;2023-07-20T13:23:38;24.80;87.80
39665;DHT22;26679;50.872;4.332;2023-07-20T13:26:04;24.90;88.30
39665;DHT22;26679;50.872;4.332;2023-07-20T13:28:30;24.80;89.00
39665;DHT22;26679;50.872;4.332;2023-07-20T13:30:55;24.70;88.90
39665;DHT22;26679;50.872;4.332;2023-07-20T13:33:21;24.80;89.00
39665;DHT22;26679;50.872;4.332;2023-07-20T13:35:46;24.80;88.90
39665;DHT22;26679;50.872;4.332;2023-07-20T13:38:12;24.70;88.70
39665;DHT22;26679;50.872;4.332;2023-07-20T13:40:37;24.60;89.30
39665;DHT22;26679;50.872;4.332;2023-07-20T13:43:03;24.60;89.70
39665;DHT22;26679;50.872;4.332;2023-07-20T13:45:28;24.40;89.10
39665;DHT22;26679;50.872;4.332;2023-07-20T13:47:54;24.30;89.30
39665;DHT22;26679;50.872;4.332;2023-07-20T13:50:19;24.60;89.50
39665;DHT22;26679;50.872;4.332;2023-07-20T13:52:45;24.70;89.90
39665;DHT22;26679;50.872;4.332;2023-07-20T13:55:11;24.80;90.00
39665;DHT22;26679;50.872;4.332;2023-07-20T13:57:36;24.80;89.50
39665;DHT22;26679;50.872;4.332;2023-07-20T14:00:05;25.00;89.50
39665;DHT22;26679;50.872;4.332;2023-07-20T14:02:31;25.20;89.00
39665;DHT22;26679;50.872;4.332;2023-07-20T14:04:56;25.40;88.90
39665;DHT22;26679;50.872;4.332;2023-07-20T14:07:22;25.60;88.30
39665;DHT22;26679;50.872;4.332;2023-07-20T14:09:48;25.80;87.90
39665;DHT22;26679;50.872;4.332;2023-07-20T14:12:13;26.00;87.50
39665;DHT22;26679;50.872;4.332;2023-07-20T14:14:42;26.10;87.10
39665;DHT22;26679;50.872;4.332;2023-07-20T14:17:07;26.20;87.10
39665;DHT22;26679;50.872;4.332;2023-07-20T14:19:33;26.30;87.70
39665;DHT22;26679;50.872;4.332;2023-07-20T14:21:58;26.60;87.80
39665;DHT22;26679;50.872;4.332;2023-07-20T14:24:25;27.40;88.10
39665;DHT22;26679;50.872;4.332;2023-07-20T14:26:50;28.50;85.90
39665;DHT22;26679;50.872;4.332;2023-07-20T14:29:16;29.50;83.40
39665;DHT22;26679;50.872;4.332;2023-07-20T14:31:43;30.00;82.10
39665;DHT22;26679;50.872;4.332;2023-07-20T14:34:09;30.80;81.10
39665;DHT22;26679;50.872;4.332;2023-07-20T14:36:34;31.10;80.80
39665;DHT22;26679;50.872;4.332;2023-07-20T14:39:00;31.50;80.20
39665;DHT22;26679;50.872;4.332;2023-07-20T14:41:25;31.90;79.50
39665;DHT22;26679;50.872;4.332;2023-07-20T14:43:51;32.00;79.00
39665;DHT22;26679;50.872;4.332;2023-07-20T14:46:17;32.50;78.00
39665;DHT22;26679;50.872;4.332;2023-07-20T14:48:42;32.00;77.50
39665;DHT22;26679;50.872;4.332;2023-07-20T14:51:08;31.30;78.20
39665;DHT22;26679;50.872;4.332;2023-07-20T14:53:33;31.50;78.60
39665;DHT22;26679;50.872;4.332;2023-07-20T14:56:02;30.70;78.50
39665;DHT22;26679;50.872;4.332;2023-07-20T14:58:28;30.20;79.30
39665;DHT22;26679;50.872;4.332;2023-07-20T15:00:53;29.60;79.70
39665;DHT22;26679;50.872;4.332;2023-07-20T15:03:19;29.00;80.30
39665;DHT22;26679;50.872;4.332;2023-07-20T15:05:44;28.50;80.90
39665;DHT22;26679;50.872;4.332;2023-07-20T15:08:10;28.00;81.80
39665;DHT22;26679;50.872;4.332;2023-07-20T15:10:36;27.50;82.00
39665;DHT22;26679;50.872;4.332;2023-07-20T15:13:01;26.70;83.40
39665;DHT22;26679;50.872;4.332;2023-07-20T15:15:27;26.10;84.70
39665;DHT22;26679;50.872;4.332;2023-07-20T15:17:53;26.10;84.70
39665;DHT22;26679;50.872;4.332;2023-07-20T15:20:19;25.90;84.70
39665;DHT22;26679;50.872;4.332;2023-07-20T15:22:45;25.90;84.60
39665;DHT22;26679;50.872;4.332;2023-07-20T15:25:10;25.70;84.70
39665;DHT22;26679;50.872;4.332;2023-07-20T15:27:37;25.70;85.30
39665;DHT22;26679;50.872;4.332;2023-07-20T15:30:03;25.50;85.60
39665;DHT22;26679;50.872;4.332;2023-07-20T15:32:28;25.40;85.70
39665;DHT22;26679;50.872;4.332;2023-07-20T15:34:54;25.40;85.90
39665;DHT22;26679;50.872;4.332;2023-07-20T15:37:19;25.20;86.00